Time;durP1;ratioP1;P1;durP2;ratioP2;P2;SDS_P1;SDS_P2;PMS_P1;PMS_P2;Temp;Humidity;BMP_temperature;BMP_pressure;BME280_temperature;BME280_humidity;BME280_pressure;Samples;Min_cycle;Max_cycle;Signal;HPM_P1;HPM_P2
2023/04/11 00:01:53;;;;;;;30.62;20.58;;;;;;;8.45;77.17;100065.03;4449126;32;33128;-88
2023/04/11 00:04:21;;;;;;;32.65;20.90;;;;;;;7.96;78.45;100067.31;4451461;32;33662;-89
2023/04/11 00:06:49;;;;;;;30.30;20.48;;;;;;;7.92;78.43;100060.22;4427724;32;32594;-90
2023/04/11 00:09:16;;;;;;;32.13;21.17;;;;;;;8.41;76.05;100059.59;4437273;32;32795;-90
2023/04/11 00:11:46;;;;;;;32.42;20.60;;;;;;;8.26;76.76;100057.00;4441205;32;33343;-89
2023/04/11 00:14:14;;;;;;;34.67;22.75;;;;;;;7.45;80.92;100065.94;4417837;32;33359;-88
2023/04/11 00:16:41;;;;;;;35.13;22.48;;;;;;;7.60;80.77;100054.00;4428883;32;32917;-90
2023/04/11 00:19:09;;;;;;;31.67;20.90;;;;;;;7.91;79.22;100055.84;4435081;32;33317;-91
2023/04/11 00:21:39;;;;;;;33.70;21.73;;;;;;;8.25;77.37;100050.09;4420288;32;32265;-89
2023/04/11 00:24:07;;;;;;;31.80;21.33;;;;;;;8.35;76.74;100049.81;4425706;32;32057;-87
2023/04/11 00:26:34;;;;;;;33.87;21.67;;;;;;;8.45;75.99;100049.56;4449999;32;33273;-90
2023/04/11 00:29:02;;;;;;;33.72;21.85;;;;;;;8.53;75.49;100056.84;4436900;32;33321;-87
2023/04/11 00:31:29;;;;;;;34.10;22.02;;;;;;;8.56;75.23;100044.13;4435605;32;33439;-90
2023/04/11 00:33:57;;;;;;;35.35;22.60;;;;;;;8.25;75.76;100042.34;4437915;32;34476;-92
2023/04/11 00:36:25;;;;;;;33.47;22.17;;;;;;;8.06;76.42;100033.53;4448129;32;33480;-93
2023/04/11 00:39:34;;;;;;;31.65;21.15;;;;;;;8.22;76.08;100040.47;4437456;32;32170;-93
2023/04/11 00:42:22;;;;;;;30.33;20.43;;;;;;;8.48;74.98;100042.78;4425440;32;31402;-93
2023/04/11 00:45:35;;;;;;;32.55;20.75;;;;;;;8.02;75.37;100031.56;4422362;32;31256;-96
2023/04/11 00:48:11;;;;;;;31.25;20.83;;;;;;;7.36;78.71;100034.44;4425287;32;32566;-88
2023/04/11 00:50:40;;;;;;;35.40;21.33;;;;;;;7.32;78.70;100032.50;4450454;32;34090;-89
2023/04/11 00:53:10;;;;;;;34.43;21.80;;;;;;;7.42;77.99;100029.69;4438516;32;31662;-89
2023/04/11 00:55:38;;;;;;;31.67;20.80;;;;;;;7.87;76.68;100030.66;4425128;32;32758;-88
2023/04/11 00:58:07;;;;;;;29.65;19.27;;;;;;;8.20;75.09;100023.13;4451308;32;33824;-89
2023/04/11 01:00:34;;;;;;;27.70;17.80;;;;;;;9.47;68.05;100029.28;4459958;32;32987;-89
2023/04/11 01:03:01;;;;;;;26.10;16.80;;;;;;;9.52;66.48;100022.66;4449038;32;33055;-88
2023/04/11 01:05:31;;;;;;;27.58;17.10;;;;;;;9.37;66.83;100032.19;4438022;32;31913;-87
2023/04/11 01:08:00;;;;;;;27.77;17.30;;;;;;;8.63;68.82;100035.91;4449924;32;31831;-87
2023/04/11 01:10:29;;;;;;;32.60;21.40;;;;;;;7.80;72.82;100020.78;4451138;32;33055;-86
2023/04/11 01:13:00;;;;;;;31.60;20.85;;;;;;;7.33;75.51;100014.56;4449277;32;33453;-87
2023/04/11 01:15:28;;;;;;;30.90;20.30;;;;;;;7.33;76.11;100018.81;4446048;32;32343;-88
2023/04/11 01:17:56;;;;;;;30.45;19.75;;;;;;;7.09;77.17;100019.09;4433458;32;32894;-88
2023/04/11 01:20:25;;;;;;;32.08;21.05;;;;;;;6.52;79.88;100014.63;4437104;32;32023;-87
2023/04/11 01:22:53;;;;;;;33.42;20.85;;;;;;;6.16;82.10;100006.28;4451255;32;31984;-88
2023/04/11 01:25:21;;;;;;;34.42;22.52;;;;;;;5.90;84.02;100010.59;4435406;32;32861;-86
2023/04/11 01:27:49;;;;;;;33.67;22.15;;;;;;;5.98;84.49;100006.87;4450385;32;34244;-87
2023/04/11 01:30:16;;;;;;;34.30;21.70;;;;;;;5.99;84.94;100008.66;4448628;32;33405;-87
2023/04/11 01:32:44;;;;;;;33.67;21.65;;;;;;;6.35;84.22;100006.69;4449406;32;32184;-87
2023/04/11 01:35:12;;;;;;;33.45;21.00;;;;;;;6.70;81.52;100013.22;4447582;32;33393;-87
2023/04/11 01:37:39;;;;;;;36.08;22.30;;;;;;;6.45;81.34;100003.03;4447871;32;33720;-86
2023/04/11 01:40:08;;;;;;;35.33;22.27;;;;;;;6.16;82.32;100008.88;4434163;32;32219;-86
2023/04/11 01:42:37;;;;;;;34.70;22.77;;;;;;;6.20;82.74;100008.28;4444821;32;33272;-86
2023/04/11 01:45:06;;;;;;;36.70;23.35;;;;;;;6.17;82.78;100000.37;4438079;32;32325;-86
2023/04/11 01:47:33;;;;;;;36.30;22.48;;;;;;;5.95;84.25;99996.41;4448096;32;33116;-86
2023/04/11 01:50:01;;;;;;;37.65;23.08;;;;;;;6.53;82.14;99994.16;4439083;32;34120;-86
2023/04/11 01:52:29;;;;;;;35.67;22.05;;;;;;;6.91;80.62;99997.34;4448193;32;33832;-86
2023/04/11 01:54:56;;;;;;;32.73;21.80;;;;;;;7.13;79.17;100004.69;4440424;32;34019;-86
2023/04/11 01:57:25;;;;;;;32.95;21.35;;;;;;;7.66;76.00;99995.06;4448074;32;33346;-86
2023/04/11 01:59:52;;;;;;;31.92;20.15;;;;;;;7.54;75.80;99994.34;4457964;32;33961;-86
2023/04/11 02:02:20;;;;;;;29.30;19.77;;;;;;;7.67;74.86;99983.97;4439756;32;34428;-86
2023/04/11 02:04:47;;;;;;;25.70;17.65;;;;;;;8.06;72.13;99984.50;4450615;32;34042;-86
2023/04/11 02:07:15;;;;;;;24.48;15.90;;;;;;;7.86;72.50;99982.44;4472992;26;33839;-77
2023/04/11 02:09:42;;;;;;;23.50;15.35;;;;;;;8.98;66.05;99987.88;4451600;32;33317;-78
2023/04/11 02:12:10;;;;;;;27.05;17.92;;;;;;;8.33;66.17;99986.88;4451183;32;32284;-76
2023/04/11 02:14:41;;;;;;;31.00;20.27;;;;;;;6.03;76.34;99990.06;4452147;32;33357;-76
2023/04/11 02:17:11;;;;;;;32.60;21.62;;;;;;;5.53;81.60;99995.28;4445963;32;33958;-75
2023/04/11 02:19:44;;;;;;;33.03;20.88;;;;;;;5.50;82.64;99990.81;4451089;32;33065;-77
2023/04/11 02:22:11;;;;;;;36.88;22.48;;;;;;;4.91;86.42;99996.19;4450738;32;33700;-74
2023/04/11 02:24:39;;;;;;;34.92;21.17;;;;;;;5.31;86.00;99988.69;4450511;32;34526;-77
2023/04/11 02:27:08;;;;;;;35.35;21.95;;;;;;;5.43;85.04;99986.06;4449909;32;34575;-76
2023/04/11 02:29:35;;;;;;;37.35;22.00;;;;;;;5.38;85.01;99989.09;4446789;32;33432;-75
2023/04/11 02:32:03;;;;;;;37.85;23.17;;;;;;;5.09;86.36;99993.09;4451227;32;33571;-77
2023/04/11 02:34:30;;;;;;;35.53;21.83;;;;;;;5.22;87.50;99982.91;4450793;32;34331;-76
2023/04/11 02:36:58;;;;;;;37.95;22.40;;;;;;;5.17;86.81;99967.97;4451780;32;33600;-77
2023/04/11 02:39:26;;;;;;;37.35;23.48;;;;;;;5.22;86.91;99969.19;4450031;32;33489;-78
2023/04/11 02:41:56;;;;;;;35.00;22.75;;;;;;;5.54;86.05;99975.59;4450995;32;34502;-75
2023/04/11 02:44:25;;;;;;;37.60;22.70;;;;;;;5.28;86.24;99967.91;4446713;32;33449;-78
2023/04/11 02:46:54;;;;;;;39.40;24.03;;;;;;;5.18;86.63;99969.75;4451420;32;32942;-74
2023/04/11 02:49:21;;;;;;;37.67;23.08;;;;;;;5.21;87.01;99970.84;4449872;32;32917;-75
2023/04/11 02:51:50;;;;;;;36.50;23.23;;;;;;;4.99;87.53;99967.59;4446674;32;34702;-77
2023/04/11 02:54:18;;;;;;;39.20;24.05;;;;;;;4.76;88.77;99979.69;4451575;32;34479;-76
2023/04/11 02:56:45;;;;;;;41.72;24.92;;;;;;;4.74;89.04;99986.41;4450545;32;33631;-76
2023/04/11 02:59:13;;;;;;;43.80;26.17;;;;;;;4.64;89.84;99986.53;4450216;32;34160;-79
2023/04/11 03:01:41;;;;;;;43.95;26.95;;;;;;;4.61;90.77;99981.19;4449790;32;34155;-74
2023/04/11 03:04:09;;;;;;;48.58;27.62;;;;;;;4.76;91.25;99984.81;4449968;32;33634;-75
2023/04/11 03:06:38;;;;;;;44.60;26.20;;;;;;;4.87;91.31;99988.16;4454956;32;31753;-74
2023/04/11 03:09:06;;;;;;;43.42;25.42;;;;;;;5.04;90.24;99987.66;4454765;32;31772;-77
2023/04/11 03:11:33;;;;;;;45.35;25.30;;;;;;;4.82;91.84;99975.00;4462044;32;34310;-75
2023/04/11 03:14:01;;;;;;;45.15;26.52;;;;;;;5.11;91.32;99983.84;4465828;32;35049;-77
2023/04/11 03:16:29;;;;;;;45.85;26.02;;;;;;;4.97;91.27;99979.44;4466967;32;33927;-78
2023/04/11 03:18:57;;;;;;;44.15;26.10;;;;;;;4.93;91.12;99980.88;4466646;32;33184;-76
2023/04/11 03:21:25;;;;;;;42.08;25.35;;;;;;;4.95;90.76;99984.44;4465399;32;33730;-76
2023/04/11 03:23:53;;;;;;;43.40;25.42;;;;;;;4.85;90.75;99982.03;4451656;32;33622;-74
2023/04/11 03:26:21;;;;;;;42.75;25.40;;;;;;;5.06;90.69;99980.03;4467146;32;35278;-76
2023/04/11 03:28:48;;;;;;;41.40;24.87;;;;;;;4.64;92.91;99973.72;4466558;32;33334;-74
2023/04/11 03:31:17;;;;;;;37.85;22.70;;;;;;;5.03;90.19;99977.28;4466353;32;33564;-78
2023/04/11 03:33:45;;;;;;;37.33;22.67;;;;;;;4.73;91.38;99974.34;4466224;32;34290;-78
2023/04/11 03:36:13;;;;;;;42.20;25.83;;;;;;;4.82;91.88;99969.84;4464918;32;34436;-76
2023/04/11 03:38:41;;;;;;;37.88;23.62;;;;;;;4.97;91.57;99974.28;4465899;32;34096;-78
2023/04/11 03:41:09;;;;;;;39.08;22.65;;;;;;;4.73;92.32;99969.19;4469143;32;33684;-76
2023/04/11 03:43:37;;;;;;;39.20;23.15;;;;;;;4.79;92.70;99968.75;4450641;32;34324;-74
2023/04/11 03:46:05;;;;;;;40.05;23.65;;;;;;;4.77;92.34;99960.97;4466951;32;33552;-79
2023/04/11 03:48:34;;;;;;;39.50;24.15;;;;;;;4.95;90.53;99970.72;4466501;32;33852;-75
2023/04/11 03:51:02;;;;;;;43.37;24.93;;;;;;;4.93;90.93;99962.91;4466888;32;33175;-77
2023/04/11 03:53:30;;;;;;;56.30;30.15;;;;;;;4.73;91.61;99958.94;4465538;32;33670;-75
2023/04/11 03:55:59;;;;;;;44.45;25.70;;;;;;;4.57;92.34;99956.09;4466280;32;33757;-75
2023/04/11 03:58:27;;;;;;;42.03;25.10;;;;;;;4.46;92.57;99957.88;4463142;32;33342;-76
2023/04/11 04:00:55;;;;;;;40.17;24.08;;;;;;;4.58;92.67;99955.28;4466149;32;33474;-76
2023/04/11 04:03:23;;;;;;;41.08;24.48;;;;;;;4.61;91.67;99958.09;4464316;32;33544;-75
2023/04/11 04:05:52;;;;;;;42.78;24.67;;;;;;;4.40;92.26;99958.31;4466024;32;33763;-75
2023/04/11 04:08:21;;;;;;;43.60;25.48;;;;;;;4.39;93.05;99951.44;4461761;32;32942;-77
2023/04/11 04:10:50;;;;;;;43.10;25.12;;;;;;;4.56;93.26;99950.06;4447865;32;32134;-79
2023/04/11 04:13:18;;;;;;;43.70;25.35;;;;;;;4.80;92.43;99945.75;4462951;32;33926;-75
2023/04/11 04:15:46;;;;;;;42.40;25.25;;;;;;;5.14;91.29;99940.41;4463704;32;33726;-76
2023/04/11 04:18:15;;;;;;;42.25;24.83;;;;;;;5.09;91.05;99944.31;4466709;32;33190;-75
2023/04/11 04:20:42;;;;;;;39.97;24.43;;;;;;;4.87;92.26;99942.84;4456159;32;34111;-77
2023/04/11 04:23:12;;;;;;;38.53;23.90;;;;;;;4.87;92.64;99940.28;4464188;32;34594;-79
2023/04/11 04:25:42;;;;;;;40.50;24.37;;;;;;;4.91;93.08;99954.22;4466289;32;34132;-74
2023/04/11 04:28:10;;;;;;;40.88;24.50;;;;;;;5.18;92.04;99947.53;4459645;32;33108;-78
2023/04/11 04:30:38;;;;;;;42.30;25.12;;;;;;;5.43;91.07;99951.78;4461565;32;33662;-78
2023/04/11 04:33:10;;;;;;;39.17;24.20;;;;;;;5.46;90.90;99946.81;4465641;32;34517;-77
2023/04/11 04:35:38;;;;;;;36.28;22.52;;;;;;;5.60;89.80;99946.09;4462289;32;33398;-75
2023/04/11 04:38:07;;;;;;;36.38;22.40;;;;;;;5.47;90.39;99936.66;4458245;32;32756;-74
2023/04/11 04:40:38;;;;;;;34.75;21.55;;;;;;;5.34;90.21;99940.87;4460300;32;33611;-79
2023/04/11 04:43:10;;;;;;;34.00;21.77;;;;;;;5.57;89.36;99924.44;4465776;32;34015;-77
2023/04/11 04:45:38;;;;;;;34.60;21.47;;;;;;;5.64;88.74;99931.72;4464885;32;34206;-77
2023/04/11 04:48:06;;;;;;;36.83;21.50;;;;;;;5.79;88.25;99931.84;4463803;32;33976;-75
2023/04/11 04:50:34;;;;;;;33.63;21.10;;;;;;;6.17;86.74;99930.94;4463782;32;33481;-77
2023/04/11 04:53:01;;;;;;;31.83;20.02;;;;;;;5.92;87.46;99929.31;4466997;32;34159;-73
2023/04/11 04:55:30;;;;;;;34.85;22.10;;;;;;;5.49;89.64;99934.19;4461694;32;34147;-79
2023/04/11 04:57:59;;;;;;;30.00;20.20;;;;;;;5.36;91.02;99936.72;4463994;32;33874;-77
2023/04/11 05:00:28;;;;;;;29.17;18.85;;;;;;;5.83;89.52;99923.56;4467911;32;33596;-75
2023/04/11 05:02:57;;;;;;;32.25;20.37;;;;;;;5.48;90.53;99929.81;4457167;32;33638;-74
2023/04/11 05:05:28;;;;;;;31.70;20.80;;;;;;;5.53;90.92;99928.47;4467841;32;32807;-76
2023/04/11 05:07:55;;;;;;;34.80;21.10;;;;;;;5.91;88.81;99931.00;4464952;32;33209;-75
2023/04/11 05:10:23;;;;;;;33.85;20.60;;;;;;;5.87;90.04;99928.09;4466964;32;32777;-75
2023/04/11 05:12:52;;;;;;;32.15;19.73;;;;;;;5.94;89.88;99925.16;4467686;32;33605;-76
2023/04/11 05:15:22;;;;;;;33.65;20.48;;;;;;;6.38;88.05;99927.16;4457142;32;33564;-75
2023/04/11 05:17:49;;;;;;;32.50;20.52;;;;;;;6.59;86.63;99927.63;4468140;32;32814;-76
2023/04/11 05:20:17;;;;;;;30.77;20.43;;;;;;;7.00;85.24;99925.81;4468080;32;34387;-77
2023/04/11 05:22:47;;;;;;;31.08;20.48;;;;;;;6.84;85.79;99914.56;4456913;32;34408;-76
2023/04/11 05:25:16;;;;;;;30.92;19.77;;;;;;;6.92;85.74;99917.63;4467901;32;33586;-76
2023/04/11 05:27:44;;;;;;;30.58;20.05;;;;;;;7.16;84.81;99918.19;4468133;32;33879;-78
2023/04/11 05:30:13;;;;;;;29.75;20.23;;;;;;;7.79;82.49;99923.59;4467771;32;33566;-78
2023/04/11 05:32:41;;;;;;;31.58;19.50;;;;;;;8.43;80.49;99916.94;4465136;32;33403;-76
2023/04/11 05:35:09;;;;;;;25.73;17.58;;;;;;;9.16;75.89;99913.94;4467279;32;33702;-77
2023/04/11 05:37:38;;;;;;;29.00;18.12;;;;;;;8.73;77.04;99916.84;4467579;32;33946;-78
2023/04/11 05:40:07;;;;;;;30.50;18.60;;;;;;;8.97;76.88;99916.38;4463357;32;34395;-76
2023/04/11 05:42:35;;;;;;;27.92;18.45;;;;;;;9.23;76.37;99910.88;4467841;32;34347;-75
2023/04/11 05:45:03;;;;;;;27.45;18.40;;;;;;;8.90;76.93;99915.13;4467861;32;34713;-76
2023/04/11 05:47:31;;;;;;;26.80;18.08;;;;;;;9.32;75.59;99906.97;4466694;32;34282;-75
2023/04/11 05:49:58;;;;;;;26.62;17.27;;;;;;;9.64;74.61;99899.16;4467578;32;33852;-76
2023/04/11 05:52:26;;;;;;;26.23;17.93;;;;;;;9.91;73.72;99903.91;4467759;32;33946;-78
2023/04/11 05:54:53;;;;;;;25.12;17.35;;;;;;;10.24;72.49;99898.59;4467310;32;34003;-74
2023/04/11 05:57:22;;;;;;;29.33;18.30;;;;;;;10.23;72.75;99892.50;4467543;32;33436;-77
2023/04/11 05:59:51;;;;;;;27.98;18.33;;;;;;;10.23;72.87;99891.63;4467310;32;33690;-79
2023/04/11 06:02:19;;;;;;;31.23;20.92;;;;;;;10.39;72.65;99891.59;4466759;32;34480;-76
2023/04/11 06:04:47;;;;;;;39.77;24.53;;;;;;;10.37;72.23;99893.22;4466460;32;33595;-78
2023/04/11 06:07:15;;;;;;;61.55;36.72;;;;;;;10.73;70.96;99885.34;4467197;32;33423;-78
2023/04/11 06:09:43;;;;;;;53.85;31.70;;;;;;;10.95;70.30;99875.94;4466409;32;34438;-78
2023/04/11 06:12:10;;;;;;;35.40;23.23;;;;;;;11.05;69.96;99878.13;4467442;32;33795;-76
2023/04/11 06:14:38;;;;;;;27.77;18.87;;;;;;;11.22;69.64;99878.84;4467854;32;33687;-78
2023/04/11 06:17:07;;;;;;;27.30;19.40;;;;;;;11.35;69.30;99878.56;4457084;32;31874;-77
2023/04/11 06:19:34;;;;;;;27.03;19.93;;;;;;;11.44;69.16;99883.28;4456832;32;33323;-75
2023/04/11 06:22:02;;;;;;;25.87;19.20;;;;;;;11.44;69.10;99875.50;4457102;32;32695;-79
2023/04/11 06:24:37;;;;;;;26.35;18.87;;;;;;;11.71;68.46;99878.34;4454438;32;33152;-77
2023/04/11 06:27:08;;;;;;;25.17;17.90;;;;;;;11.79;67.95;99866.56;4467146;32;32444;-75
2023/04/11 06:29:37;;;;;;;27.40;18.92;;;;;;;11.80;68.19;99862.25;4454047;32;32934;-77
2023/04/11 06:32:05;;;;;;;25.60;18.25;;;;;;;11.90;68.12;99864.44;4452346;32;33630;-78
2023/04/11 06:34:33;;;;;;;27.37;19.52;;;;;;;12.29;67.03;99853.88;4456802;32;34398;-79
2023/04/11 06:37:00;;;;;;;28.60;19.40;;;;;;;12.14;67.46;99861.94;4467753;32;33529;-76
2023/04/11 06:39:28;;;;;;;28.58;19.42;;;;;;;12.47;66.56;99858.88;4467387;32;33696;-76
2023/04/11 06:41:55;;;;;;;39.17;23.35;;;;;;;12.42;66.09;99859.53;4467017;32;33787;-76
2023/04/11 06:44:23;;;;;;;31.85;21.48;;;;;;;12.32;66.81;99854.00;4456421;32;33155;-76
2023/04/11 06:46:51;;;;;;;35.35;22.67;;;;;;;12.50;66.09;99860.72;4467072;32;33362;-75
2023/04/11 06:49:19;;;;;;;30.25;20.77;;;;;;;12.75;65.16;99859.94;4467283;32;34637;-79
2023/04/11 06:51:48;;;;;;;27.77;19.52;;;;;;;13.51;62.79;99856.56;4453825;32;33158;-78
2023/04/11 06:54:17;;;;;;;33.85;22.62;;;;;;;12.94;64.09;99851.06;4467322;32;34460;-76
2023/04/11 06:56:44;;;;;;;33.25;21.42;;;;;;;12.47;66.51;99855.41;4464797;32;33201;-79
2023/04/11 06:59:12;;;;;;;29.05;20.10;;;;;;;12.82;65.71;99842.81;4452191;32;34064;-77
2023/04/11 07:01:40;;;;;;;30.35;20.90;;;;;;;12.99;65.43;99845.19;4454593;32;32695;-78
2023/04/11 07:04:08;;;;;;;26.77;19.60;;;;;;;13.18;65.13;99846.72;4466928;32;33957;-78
2023/04/11 07:06:35;;;;;;;27.60;19.75;;;;;;;13.37;64.64;99848.28;4463438;32;33929;-77
2023/04/11 07:09:03;;;;;;;25.75;18.60;;;;;;;13.53;64.34;99848.81;4464250;32;34501;-76
2023/04/11 07:11:32;;;;;;;27.70;19.47;;;;;;;13.36;64.45;99840.44;4465721;32;32557;-77
2023/04/11 07:14:00;;;;;;;26.17;18.70;;;;;;;13.02;65.25;99839.25;4457503;32;33592;-79
2023/04/11 07:16:27;;;;;;;26.07;19.07;;;;;;;12.84;66.90;99822.97;4467108;32;33256;-77
2023/04/11 07:18:56;;;;;;;25.10;18.17;;;;;;;13.45;66.58;99819.94;4466027;32;33321;-77
2023/04/11 07:21:23;;;;;;;24.95;18.20;;;;;;;13.98;64.44;99819.88;4462812;32;32896;-75
2023/04/11 07:23:52;;;;;;;24.00;17.00;;;;;;;14.23;64.43;99824.13;4465783;32;33690;-77
2023/04/11 07:26:22;;;;;;;24.42;17.27;;;;;;;14.33;63.44;99826.19;4467276;32;34456;-75
2023/04/11 07:28:50;;;;;;;23.10;16.70;;;;;;;14.44;61.81;99813.47;4465420;32;33380;-76
2023/04/11 07:31:20;;;;;;;21.62;14.07;;;;;;;14.65;60.75;99818.44;4456494;32;33492;-77
2023/04/11 07:33:48;;;;;;;20.43;13.80;;;;;;;15.03;58.86;99823.84;4466955;32;33795;-77
2023/04/11 07:36:16;;;;;;;20.27;14.00;;;;;;;15.55;56.94;99821.72;4459388;32;33646;-77
2023/04/11 07:38:44;;;;;;;20.52;14.27;;;;;;;15.40;58.10;99821.34;4466409;32;33528;-77
2023/04/11 07:41:11;;;;;;;21.67;15.02;;;;;;;14.20;59.19;99829.25;4456110;32;33787;-75
2023/04/11 07:43:39;;;;;;;20.98;15.25;;;;;;;14.41;59.24;99828.13;4456219;32;34560;-76
2023/04/11 07:46:06;;;;;;;18.87;13.98;;;;;;;14.57;60.53;99830.38;4467147;32;33645;-78
2023/04/11 07:48:34;;;;;;;23.00;15.77;;;;;;;14.62;58.85;99826.19;4463087;32;33672;-77
2023/04/11 07:51:02;;;;;;;20.60;14.70;;;;;;;13.81;61.30;99827.19;4466922;32;33912;-76
2023/04/11 07:53:32;;;;;;;23.12;15.77;;;;;;;14.34;61.90;99817.53;4466522;32;33525;-75
2023/04/11 07:56:00;;;;;;;21.10;15.77;;;;;;;14.30;61.36;99820.88;4465284;32;32257;-75
2023/04/11 07:58:28;;;;;;;21.57;16.00;;;;;;;14.41;61.92;99812.47;4466702;32;33750;-79
2023/04/11 08:00:57;;;;;;;20.40;15.20;;;;;;;14.24;61.52;99802.47;4466234;32;33730;-75
2023/04/11 08:03:25;;;;;;;21.45;15.40;;;;;;;14.67;59.74;99808.94;4450494;32;31243;-77
2023/04/11 08:05:53;;;;;;;21.77;15.15;;;;;;;15.32;57.55;99810.72;4465558;32;33972;-77
2023/04/11 08:08:21;;;;;;;20.37;14.15;;;;;;;14.61;60.33;99811.37;4448978;32;32254;-75
2023/04/11 08:10:49;;;;;;;18.08;13.57;;;;;;;14.65;58.83;99810.63;4449749;32;33824;-79
2023/04/11 08:13:18;;;;;;;20.83;13.75;;;;;;;14.14;58.58;99803.03;4449256;32;34394;-76
2023/04/11 08:15:46;;;;;;;20.37;14.85;;;;;;;13.82;58.96;99805.50;4451057;32;33620;-76
2023/04/11 08:18:15;;;;;;;20.65;15.45;;;;;;;13.71;58.63;99793.88;4449399;32;34653;-75
2023/04/11 08:20:42;;;;;;;21.42;15.63;;;;;;;14.43;58.83;99785.66;4449426;32;33488;-78
2023/04/11 08:23:10;;;;;;;20.58;15.15;;;;;;;14.47;59.00;99786.63;4446271;32;33790;-75
2023/04/11 08:25:38;;;;;;;21.15;15.05;;;;;;;14.64;57.93;99785.41;4451159;32;34178;-76
2023/04/11 08:28:05;;;;;;;20.10;14.90;;;;;;;15.16;57.85;99785.91;4451881;32;34368;-76
2023/04/11 08:30:33;;;;;;;23.75;15.23;;;;;;;14.71;59.30;99771.69;4451310;32;33769;-76
2023/04/11 08:33:00;;;;;;;20.37;14.35;;;;;;;14.52;59.93;99769.38;4452806;32;33500;-78
2023/04/11 08:35:28;;;;;;;22.00;15.95;;;;;;;14.40;58.11;99762.09;4448260;32;33580;-78
2023/04/11 08:37:56;;;;;;;22.80;16.67;;;;;;;14.97;57.61;99758.50;4450077;32;33794;-76
2023/04/11 08:40:24;;;;;;;24.67;17.45;;;;;;;14.64;59.91;99755.84;4443148;32;33606;-76
2023/04/11 08:42:59;;;;;;;24.40;16.92;;;;;;;14.52;58.58;99751.13;4449168;32;33392;-76
2023/04/11 08:45:27;;;;;;;23.23;17.13;;;;;;;14.72;57.65;99744.78;4452813;32;32818;-76
2023/04/11 08:47:55;;;;;;;24.02;16.98;;;;;;;15.25;59.05;99743.53;4451387;32;33653;-76
2023/04/11 08:50:23;;;;;;;26.65;17.55;;;;;;;14.79;58.65;99742.34;4450523;32;33786;-78
2023/04/11 08:52:51;;;;;;;24.45;17.92;;;;;;;14.60;58.97;99738.34;4451925;32;34371;-76
2023/04/11 08:55:19;;;;;;;25.33;19.30;;;;;;;14.89;58.56;99728.69;4449049;32;33306;-78
2023/04/11 08:57:46;;;;;;;26.33;19.95;;;;;;;14.88;58.82;99719.13;4448260;32;33877;-81
2023/04/11 09:00:17;;;;;;;27.33;20.37;;;;;;;14.33;61.04;99721.06;4449948;32;34983;-78
2023/04/11 09:03:03;;;;;;;29.50;20.70;;;;;;;14.43;59.86;99723.09;4450086;32;32072;-77
2023/04/11 09:05:37;;;;;;;27.77;20.88;;;;;;;14.69;60.02;99731.66;4447424;32;32110;-78
2023/04/11 09:08:13;;;;;;;28.05;20.27;;;;;;;15.07;58.93;99721.34;4460517;32;34055;-77
2023/04/11 09:10:46;;;;;;;28.92;21.33;;;;;;;14.57;59.87;99720.03;4467077;32;33059;-79
2023/04/11 09:13:24;;;;;;;28.98;20.92;;;;;;;14.32;61.88;99725.41;4467704;32;34301;-78
2023/04/11 09:16:04;;;;;;;27.02;20.10;;;;;;;14.97;59.40;99719.37;4467057;32;33177;-77
2023/04/11 09:18:33;;;;;;;29.10;21.30;;;;;;;14.74;60.01;99714.44;4466424;32;33076;-77
2023/04/11 09:21:03;;;;;;;29.27;21.17;;;;;;;14.87;60.28;99709.53;4467383;32;33738;-77
2023/04/11 09:23:31;;;;;;;29.83;21.90;;;;;;;15.36;59.24;99702.94;4468011;32;33002;-78
2023/04/11 09:25:58;;;;;;;29.90;22.10;;;;;;;15.43;56.91;99699.62;4466644;32;33071;-78
2023/04/11 09:28:26;;;;;;;30.80;21.63;;;;;;;15.82;58.59;99695.28;4450334;32;33271;-78
2023/04/11 09:30:54;;;;;;;30.60;22.17;;;;;;;16.34;57.72;99679.81;4454948;32;32358;-77
2023/04/11 09:33:24;;;;;;;32.10;21.98;;;;;;;15.86;57.53;99687.56;4464644;32;34315;-79
2023/04/11 09:35:54;;;;;;;29.70;20.88;;;;;;;15.70;58.75;99680.19;4455968;32;32940;-78
2023/04/11 09:38:31;;;;;;;29.57;20.83;;;;;;;16.16;56.69;99686.44;4466683;32;33762;-79
2023/04/11 09:41:01;;;;;;;27.03;19.87;;;;;;;16.05;55.17;99686.22;4467256;32;33626;-78
2023/04/11 09:43:58;;;;;;;28.33;20.73;;;;;;;16.69;56.35;99686.59;4464092;32;33348;-77
2023/04/11 09:46:26;;;;;;;28.38;20.40;;;;;;;15.96;57.72;99687.75;4450579;32;33463;-78
2023/04/11 09:48:54;;;;;;;24.17;17.48;;;;;;;16.05;56.80;99682.72;4466054;32;32125;-77
2023/04/11 09:51:22;;;;;;;24.33;18.37;;;;;;;16.30;54.79;99669.31;4463942;32;34394;-76
2023/04/11 09:54:03;;;;;;;23.63;16.30;;;;;;;16.48;55.59;99663.53;4466418;32;33045;-77
2023/04/11 09:56:35;;;;;;;24.30;18.20;;;;;;;16.62;53.44;99655.94;4465048;32;33557;-77
2023/04/11 09:59:03;;;;;;;22.73;17.17;;;;;;;16.56;52.46;99655.84;4463593;32;33684;-77
2023/04/11 10:01:32;;;;;;;22.17;17.00;;;;;;;16.91;52.95;99653.00;4464740;32;34063;-77
2023/04/11 10:03:59;;;;;;;23.23;17.12;;;;;;;16.94;52.49;99649.53;4452761;32;34455;-77
2023/04/11 10:07:07;;;;;;;22.07;15.80;;;;;;;17.24;51.54;99647.41;4451870;32;33264;-76
2023/04/11 10:09:40;;;;;;;22.48;16.35;;;;;;;17.49;48.96;99640.78;4451275;32;33460;-74
2023/04/11 10:12:08;;;;;;;22.35;16.33;;;;;;;16.95;50.59;99644.34;4451016;32;34215;-78
2023/04/11 10:14:40;;;;;;;24.20;18.05;;;;;;;17.28;51.97;99638.75;4462696;32;34547;-78
2023/04/11 10:17:19;;;;;;;29.07;20.80;;;;;;;17.27;52.30;99636.13;4463662;32;33175;-77
2023/04/11 10:19:55;;;;;;;28.25;19.60;;;;;;;17.35;51.80;99623.16;4464505;32;32490;-77
2023/04/11 10:22:45;;;;;;;26.45;18.85;;;;;;;17.09;54.38;99608.81;4466363;32;33332;-79
2023/04/11 10:25:17;;;;;;;25.48;18.52;;;;;;;16.89;51.09;99612.84;4466048;32;33063;-76
2023/04/11 10:27:48;;;;;;;26.37;18.80;;;;;;;17.21;50.94;99615.06;4467807;32;33111;-78
2023/04/11 10:30:16;;;;;;;21.27;16.25;;;;;;;17.73;51.62;99610.56;4467608;32;33224;-77
2023/04/11 10:33:12;;;;;;;27.15;18.10;;;;;;;17.14;50.57;99603.63;4467782;32;33793;-77
2023/04/11 10:36:11;;;;;;;25.62;18.35;;;;;;;16.97;51.84;99595.53;4458863;32;33137;-77
2023/04/11 10:38:39;;;;;;;25.90;16.98;;;;;;;17.25;53.04;99596.81;4461485;32;32802;-77
2023/04/11 10:41:16;;;;;;;22.52;16.15;;;;;;;17.22;50.82;99595.91;4457287;32;33290;-75
2023/04/11 10:43:44;;;;;;;23.17;17.77;;;;;;;17.26;50.11;99589.84;4464983;32;32918;-76
2023/04/11 10:46:30;;;;;;;26.33;16.65;;;;;;;17.03;51.07;99582.53;4455562;32;34541;-75
2023/04/11 10:49:03;;;;;;;23.42;17.20;;;;;;;17.77;48.70;99585.28;4452209;32;33727;-76
2023/04/11 10:51:31;;;;;;;23.15;16.12;;;;;;;17.90;49.46;99581.09;4467469;32;33457;-77
2023/04/11 10:53:59;;;;;;;19.98;14.80;;;;;;;18.30;49.31;99576.28;4461211;32;33664;-76
2023/04/11 10:56:44;;;;;;;22.48;15.82;;;;;;;18.31;44.80;99572.78;4466879;32;33479;-73
2023/04/11 10:59:30;;;;;;;22.98;16.77;;;;;;;18.14;45.28;99576.13;4465852;32;32993;-76
2023/04/11 11:02:01;;;;;;;21.97;16.47;;;;;;;19.32;46.50;99557.00;4461717;32;33765;-75
2023/04/11 11:04:33;;;;;;;17.77;13.15;;;;;;;18.90;45.21;99559.34;4467449;32;34106;-77
2023/04/11 11:07:06;;;;;;;19.85;14.30;;;;;;;17.62;45.96;99565.03;4469841;32;33384;-76
2023/04/11 11:09:34;;;;;;;21.83;15.43;;;;;;;17.78;46.51;99559.09;4470360;32;33425;-76
2023/04/11 11:12:11;;;;;;;20.85;15.38;;;;;;;18.28;47.15;99548.31;4477084;32;34128;-76
2023/04/11 11:14:40;;;;;;;19.10;13.38;;;;;;;17.87;47.07;99530.41;4475699;32;33784;-76
2023/04/11 11:17:08;;;;;;;21.42;13.55;;;;;;;17.71;46.08;99538.91;4480750;32;33703;-76
2023/04/11 11:19:35;;;;;;;16.92;12.13;;;;;;;18.03;47.59;99539.31;4455117;32;33263;-78
2023/04/11 11:22:05;;;;;;;16.65;10.80;;;;;;;18.84;43.69;99528.69;4437331;32;33499;-77
2023/04/11 11:24:32;;;;;;;16.27;12.13;;;;;;;18.81;43.68;99527.78;4454175;32;33697;-78
2023/04/11 11:26:59;;;;;;;18.67;13.43;;;;;;;18.61;45.02;99509.25;4479901;32;34589;-78
2023/04/11 11:29:33;;;;;;;18.08;13.45;;;;;;;17.37;46.05;99522.81;4469977;32;33364;-78
2023/04/11 11:32:04;;;;;;;18.90;13.30;;;;;;;17.78;45.11;99521.56;4473562;32;33126;-77